• Join FlightAware (Why Join?)
  • Login
  • US Flag 
09:30PM EDT


 

Airport Tracker/Info


-or-


 

Live Flight TrackerFlight Track Log ✈ UAL4191 ✈ 22-Apr-2013 ✈ KIAH - KCHS

Flight Track Log - Related Links

Times and Time Zones

All times are in EDT time to prevent confusion due to time zone crossing. See the UAL4191 flight status page for this flight to view local times or setup timezone preferences in your user account.

Time Position Orientation Groundspeed Altitude Reporting Facility
EDT Latitude Longitude Course Direction KTS MPH feet Rate Location/Type
03:26PM 29.9617 -95.3436 97° East 151 174 600  Level Houston Center
03:27PM 29.9456 -95.2806 106° East 236 272 2,300 1,500 Climbing Houston Center
03:28PM 29.9478 -95.2578 84° East 225 259 3,000 2,400 Climbing Houston Center
03:28PM 29.9528 -95.2000 84° East 267 307 4,800 2,580 Climbing Houston Center
03:29PM 29.9553 -95.1736 84° East 251 289 5,700 2,940 Climbing Houston Center
03:29PM 29.9525 -95.1083 93° East 278 320 7,800 2,580 Climbing Houston Center
03:30PM 29.9096 -94.7812 95° East  Level FlightAware Approximate
03:30PM 29.9508 -95.0844 95° East 277 319 8,400  Level Houston Center
03:30PM 29.9419 -95.0181 99° East 292 336 10,200 2,400 Climbing Houston Center
03:31PM 29.8973 -94.6422 97° East  Level FlightAware Approximate
03:31PM 29.9383 -94.9717 95° East 290 334 10,900  Level Houston Center
03:32PM 29.8820 -94.5036 97° East  Level FlightAware Approximate
03:32PM 29.9258 -94.8625 97° East 329 379 12,000  Level Houston Center
03:33PM 29.9114 -94.7425 98° East 361 415 13,500 1,320 Climbing Houston Center
03:34PM 29.8975 -94.6142 97° East 392 451 14,800 1,500 Climbing Houston Center
03:35PM 29.8819 -94.4844 98° East 404 465 16,700 1,380 Climbing Houston Center
03:36PM 29.8669 -94.3536 97° East 408 470 17,700 1,500 Climbing Houston Center
03:37PM 29.8561 -94.1922 94° East 416 479 19,800 1,860 Climbing Houston Center
03:38PM 29.8542 -94.0656 91° East 412 474 21,600 1,740 Climbing Houston Center
03:39PM 29.8653 -93.9375 84° East 400 460 23,500 1,860 Climbing Houston Center
03:40PM 29.8783 -93.8111 83° East 399 459 25,500 1,680 Climbing Houston Center
03:41PM 29.8903 -93.6881 84° East 392 451 27,100 1,500 Climbing Houston Center
03:42PM 29.9058 -93.5414 83° East 388 447 28,700 1,440 Climbing Houston Center
03:43PM 29.9183 -93.4153 83° East 397 457 30,100 1,320 Climbing Houston Center
03:44PM 29.9311 -93.2900 83° East 397 457 31,500 1,320 Climbing Houston Center
03:45PM 29.9433 -93.1650 84° East 397 457 32,900 1,080 Climbing Houston Center
03:46PM 29.9564 -93.0417 83° East 392 451 33,800 840 Climbing Houston Center
03:47PM 29.9714 -92.8894 83° East 398 458 34,700 720 Climbing Houston Center
03:48PM 29.9817 -92.7606 85° East 405 466 35,400 660 Climbing Houston Center
03:49PM 29.9928 -92.6303 84° East 411 473 36,100 600 Climbing Houston Center
03:51PM 30.0025 -92.4983 85° East 414 476 36,700 420 Climbing Houston Center
03:52PM 30.0139 -92.3633 84° East 421 484 37,000 120 Climbing Houston Center
03:53PM 30.0261 -92.1964 85° East 436 502 37,000  Level Houston Center
03:54PM 30.0483 -92.0494 80° East 459 528 37,000  Level Houston Center
03:55PM 30.0761 -91.9014 78° East 471 542 37,000  Level Houston Center
03:56PM 30.1047 -91.7467 78° East 489 563 37,000  Level Houston Center
03:57PM 30.1342 -91.5906 78° East 506 582 37,000  Level Houston Center
03:58PM 30.1675 -91.3992 79° East 508 585 37,000  Level Houston Center
03:59PM 30.1969 -91.2397 78° East 509 586 37,000  Level Houston Center
04:00PM 30.2236 -91.0811 79° East 505 581 37,000  Level Houston Center
04:01PM 30.2522 -90.9222 78° East 506 582 37,000  Level Houston Center
04:02PM 30.2803 -90.7625 78° East 507 583 37,000  Level Houston Center
04:03PM 30.3083 -90.6019 79° East 508 585 37,000  Level Houston Center
04:04PM 30.3403 -90.4089 79° East 510 587 37,000  Level Houston Center
04:05PM 30.3681 -90.2486 79° East 509 586 37,000  Level Houston Center
04:06PM 30.3947 -90.0878 79° East 508 585 37,000  Level Houston Center
04:07PM 30.4217 -89.9272 79° East 504 580 37,000  Level Houston Center
04:08PM 30.4464 -89.7728 79° East 504 580 37,000  Level Houston Center
04:09PM 30.4761 -89.5983 79° East 508 585 37,000  Level Houston Center
04:10PM 30.5019 -89.4381 79° East 505 581 37,000  Level Houston Center
04:11PM 30.5281 -89.2783 79° East 504 580 37,000  Level Houston Center
04:12PM 30.5581 -89.0847 80° East 509 586 37,000  Level Houston Center
04:13PM 30.5803 -88.9433 80° East 503 579 37,000  Level Houston Center
04:14PM 30.6042 -88.7861 80° East 499 574 37,000  Level Houston Center
04:15PM 30.6339 -88.5972 80° East 498 573 37,000  Level Houston Center
04:16PM 30.6575 -88.4408 80° East 496 571 37,000  Level Houston Center
04:17PM 30.6825 -88.2850 79° East 496 571 37,000  Level Houston Center
04:18PM 30.7092 -88.1078 80° East 492 566 37,000  Level Houston Center
04:20PM 30.7336 -87.9506 80° East 494 568 37,000  Level Houston Center
04:20PM 30.7486 -87.8400 81° East 492 566 37,000  Level Jacksonville Center
04:21PM 30.7692 -87.6842 81° East 492 566 37,000  Level Jacksonville Center
04:22PM 30.7792 -87.5275 86° East 492 566 37,000  Level Jacksonville Center
04:23PM 30.7897 -87.3492 86° East 498 573 37,000  Level Jacksonville Center
04:24PM 30.7992 -87.1947 86° East 498 573 37,000  Level Jacksonville Center
04:25PM 30.8086 -87.0356 86° East 493 567 37,000  Level Jacksonville Center
04:26PM 30.8158 -86.8786 87° East 493 567 37,000  Level Jacksonville Center
04:27PM 30.8269 -86.7244 85° East 493 567 37,000  Level Jacksonville Center
04:28PM 30.8414 -86.5894 83° East 481 554 37,000  Level Jacksonville Center
04:29PM 30.8708 -86.4333 78° East 481 554 37,000  Level Jacksonville Center
04:30PM 30.9000 -86.2819 77° East 481 554 37,000  Level Jacksonville Center
04:31PM 30.9267 -86.1328 78° East 481 554 37,000  Level Jacksonville Center
04:32PM 30.9556 -85.9789 78° East 486 559 37,000  Level Jacksonville Center
04:33PM 30.9847 -85.8150 78° East 481 554 37,000  Level Jacksonville Center
04:34PM 31.0131 -85.6606 78° East 481 554 37,000  Level Jacksonville Center
04:35PM 31.0392 -85.5086 79° East 481 554 37,000  Level Jacksonville Center
04:36PM 31.0675 -85.3544 78° East 486 559 37,000 -120 Level Jacksonville Center
04:37PM 31.0953 -85.1997 78° East 480 552 36,800 -600 Descending Jacksonville Center
04:38PM 31.1189 -85.0500 80° East 480 552 35,800 -900 Descending Jacksonville Center
04:39PM 31.1444 -84.8975 79° East 480 552 35,000 -420 Descending Jacksonville Center
04:40PM 31.1717 -84.7475 78° East 475 547 35,000  Level Jacksonville Center
04:41PM 31.1967 -84.5975 79° East 470 541 35,000  Level Jacksonville Center
04:42PM 31.2239 -84.4450 78° East 470 541 35,000  Level Jacksonville Center
04:43PM 31.2444 -84.2850 81° East 480 552 35,000  Level Jacksonville Center
04:44PM 31.2106 -84.1314 104° East 475 547 35,000  Level Jacksonville Center
04:45PM 31.1658 -83.9803 109° East 475 547 35,000 -960 Level Jacksonville Center
04:46PM 31.1233 -83.8342 109° East 480 552 33,100 -1,920 Descending Jacksonville Center
04:47PM 31.1431 -83.6717 82° East 474 545 31,200 -1,920 Descending Jacksonville Center
04:48PM 31.1961 -83.5144 68° East 484 557 29,300 -1,140 Descending Jacksonville Center
04:49PM 31.2492 -83.3639 68° East 496 571 29,000 -180 Descending Jacksonville Center
04:50PM 31.3017 -83.2111 68° East 501 577 29,000  Level Jacksonville Center
04:51PM 31.3500 -83.0603 69° East 506 582 29,000  Level Jacksonville Center
04:52PM 31.4044 -82.9047 68° East 506 582 29,000  Level Jacksonville Center
04:53PM 31.4544 -82.7514 69° East 506 582 29,000  Level Jacksonville Center
04:54PM 31.5044 -82.5978 69° East 506 582 29,000  Level Jacksonville Center
04:55PM 31.5603 -82.4489 66° East 506 582 29,000  Level Jacksonville Center
04:56PM 31.6306 -82.3069 60° Northeast 494 568 29,000  Level Jacksonville Center
04:57PM 31.6864 -82.1869 61° Northeast 474 545 29,000  Level Jacksonville Center
04:58PM 31.7586 -82.0350 61° Northeast 474 545 29,000  Level Jacksonville Center
04:59PM 31.8183 -81.9097 61° Northeast 480 552 29,000 -480 Level Jacksonville Center
05:00PM 31.8900 -81.7547 61° Northeast 480 552 28,100 -1,380 Descending Jacksonville Center
05:01PM 31.9575 -81.6094 61° Northeast 490 564 26,300 -1,860 Descending Jacksonville Center
05:02PM 32.0167 -81.4814 61° Northeast 496 571 24,400 -1,980 Descending Jacksonville Center
05:03PM 32.0797 -81.3406 62° Northeast 485 558 22,400 -2,040 Descending Jacksonville Center
05:04PM 32.1428 -81.2094 60° Northeast 472 543 20,400 -2,100 Descending Jacksonville Center
05:05PM 32.2142 -81.0878 55° Northeast 460 529 18,300 -2,040 Descending Jacksonville Center
05:06PM 32.2919 -80.9708 52° Northeast 412 474 16,400 -1,920 Descending Jacksonville Center
05:07PM 32.3531 -80.8736 53° Northeast 412 474 14,500 -2,040 Descending Jacksonville Center
05:08PM 32.4161 -80.7714 54° Northeast 400 460 12,400 -1,800 Descending Jacksonville Center
05:09PM 32.4789 -80.6714 53° Northeast 386 444 10,900 -780 Descending Jacksonville Center
05:10PM 32.5400 -80.5736 53° Northeast 375 432 10,900  Level Jacksonville Center
05:11PM 32.6006 -80.4736 54° Northeast 369 425 10,900 -180 Level Jacksonville Center
05:12PM 32.6722 -80.4025 40° Northeast 360 414 10,600 -1,020 Descending Jacksonville Center
05:13PM 32.7064 -80.3275 62° Northeast 290 334 8,900 -2,100 Descending Jacksonville Center
05:14PM 32.6981 -80.2339 96° East 263 303 6,500 -2,340 Descending Jacksonville Center
05:15PM 32.7300 -80.1664 61° Northeast 254 292 4,300 -1,800 Descending Jacksonville Center
05:16PM 32.7769 -80.1181 41° Northeast 224 258 2,900 -1,440 Descending Jacksonville Center